Time;durP1;ratioP1;P1;durP2;ratioP2;P2;SDS_P1;SDS_P2;PMS_P1;PMS_P2;Temp;Humidity;BMP_temperature;BMP_pressure;BME280_temperature;BME280_humidity;BME280_pressure;Samples;Min_cycle;Max_cycle;Signal;HPM_P1;HPM_P2
2022/11/11 00:02:09;;;;;;;10.30;6.15;;;;;;;;;;5053625;28;20029;-68
2022/11/11 00:05:33;;;;;;;20.38;10.57;;;;;;;;;;5053708;28;20044;-69
2022/11/11 00:08:56;;;;;;;12.23;6.85;;;;;;;;;;5054019;28;20048;-69
2022/11/11 00:12:19;;;;;;;15.90;10.32;;;;;;;;;;5052967;28;20041;-69
2022/11/11 00:15:41;;;;;;;28.55;13.07;;;;;;;;;;5053891;28;20048;-69
2022/11/11 00:26:27;;;;;;;30.15;18.98;;;;;;;;;;5053705;28;20048;-69
2022/11/11 00:29:50;;;;;;;30.70;17.17;;;;;;;;;;5053607;28;20036;-69
2022/11/11 00:33:13;;;;;;;25.77;17.30;;;;;;;;;;5053564;28;20067;-69
2022/11/11 00:36:35;;;;;;;28.85;17.38;;;;;;;;;;5053222;28;20503;-69
2022/11/11 00:39:58;;;;;;;22.55;14.10;;;;;;;;;;5053229;28;20043;-67
2022/11/11 00:43:21;;;;;;;26.42;14.95;;;;;;;;;;5053087;28;20044;-68
2022/11/11 00:54:07;;;;;;;18.15;11.98;;;;;;;;;;5053158;28;19924;-68
2022/11/11 00:57:30;;;;;;;19.63;12.88;;;;;;;;;;5053001;28;20051;-69
2022/11/11 01:00:52;;;;;;;22.77;13.40;;;;;;;;;;5052930;28;20048;-69
2022/11/11 01:04:15;;;;;;;18.40;12.40;;;;;;;;;;5052947;28;20515;-68
2022/11/11 01:07:38;;;;;;;21.10;12.93;;;;;;;;;;5052557;28;20056;-68
2022/11/11 01:11:01;;;;;;;22.65;13.35;;;;;;;;;;5052700;28;20056;-68
2022/11/11 01:14:23;;;;;;;20.50;12.32;;;;;;;;;;5052787;28;20112;-68
2022/11/11 01:17:46;;;;;;;22.08;12.85;;;;;;;;;;5052658;28;20036;-68
2022/11/11 01:21:19;;;;;;;20.23;13.45;;;;;;;;;;5052265;28;20048;-69
2022/11/11 01:24:42;;;;;;;20.20;13.27;;;;;;;;;;5051570;28;20048;-69
2022/11/11 01:28:05;;;;;;;21.10;13.00;;;;;;;;;;5052351;28;20036;-67
2022/11/11 01:31:28;;;;;;;17.75;12.10;;;;;;;;;;5052232;28;20055;-68
2022/11/11 01:34:51;;;;;;;16.33;11.82;;;;;;;;;;5052176;28;20036;-68
2022/11/11 01:38:14;;;;;;;17.60;12.07;;;;;;;;;;5052314;28;20048;-69
2022/11/11 01:41:37;;;;;;;16.15;12.35;;;;;;;;;;5052085;28;20503;-67
2022/11/11 01:45:00;;;;;;;20.40;13.38;;;;;;;;;;5051705;28;20508;-69
2022/11/11 01:52:19;;;;;;;23.10;13.30;;;14.80;96.60;;;;;;5051740;28;20508;-69
2022/11/11 01:55:42;;;;;;;21.73;12.45;;;14.50;97.20;;;;;;5051733;28;20055;-67
2022/11/11 01:59:11;;;;;;;20.92;12.40;;;14.50;97.70;;;;;;5051866;28;20043;-67
2022/11/11 02:02:44;;;;;;;20.67;12.23;;;14.40;97.40;;;;;;5051631;28;20036;-69
2022/11/11 02:06:07;;;;;;;18.98;11.75;;;14.30;97.60;;;;;;5051510;28;20044;-68
2022/11/11 02:09:30;;;;;;;21.33;12.25;;;14.30;97.50;;;;;;5051541;28;20064;-68
2022/11/11 02:16:34;;;;;;;14.35;10.63;;;14.30;97.60;;;;;;5051415;28;20052;-68
2022/11/11 02:20:02;;;;;;;14.75;10.80;;;14.20;97.50;;;;;;5051475;28;20400;-67
2022/11/11 02:23:37;;;;;;;20.00;12.00;;;14.20;97.40;;;;;;5051572;28;20048;-69
2022/11/11 02:27:01;;;;;;;16.33;10.40;;;14.10;97.70;;;;;;5051337;28;20059;-69
2022/11/11 02:30:24;;;;;;;18.83;10.23;;;14.10;97.90;;;;;;5051339;28;20397;-68
2022/11/11 02:33:46;;;;;;;16.50;9.95;;;14.10;97.50;;;;;;5051156;28;20043;-68
2022/11/11 02:37:09;;;;;;;12.15;9.02;;;14.00;97.70;;;;;;5050879;28;20044;-68
2022/11/11 02:44:25;;;;;;;13.50;7.90;;;13.90;98.10;;;;;;5051115;28;20059;-68
2022/11/11 02:47:47;;;;;;;13.52;9.82;;;14.10;97.90;;;;;;5051128;28;20044;-67
2022/11/11 02:51:10;;;;;;;12.20;8.40;;;14.10;97.70;;;;;;5050530;28;20052;-67
2022/11/11 02:54:33;;;;;;;14.20;8.10;;;14.00;97.30;;;;;;5050991;28;20052;-67
2022/11/11 02:57:55;;;;;;;12.80;8.07;;;13.90;97.50;;;;;;5050861;28;20032;-69
2022/11/11 03:01:18;;;;;;;14.07;8.55;;;14.00;97.90;;;;;;5051043;28;20051;-67
2022/11/11 03:04:40;;;;;;;10.07;7.88;;;14.00;98.10;;;;;;5051058;28;20198;-67
2022/11/11 03:08:03;;;;;;;13.23;8.45;;;14.10;98.00;;;;;;5051008;28;20059;-68
2022/11/11 03:11:26;;;;;;;14.52;7.60;;;14.10;97.60;;;;;;5050575;28;20040;-68
2022/11/11 03:14:49;;;;;;;15.85;7.50;;;14.00;98.00;;;;;;5050850;28;20048;-68
2022/11/11 03:18:11;;;;;;;9.75;6.47;;;14.00;97.50;;;;;;5050757;28;20667;-68
2022/11/11 03:21:34;;;;;;;11.88;6.80;;;14.00;98.30;;;;;;5050893;28;20036;-68
2022/11/11 03:28:38;;;;;;;;;;;13.90;98.20;;;;;;5051043;28;20048;-68
2022/11/11 03:32:01;;;;;;;10.43;7.15;;;13.90;98.50;;;;;;5050429;28;19924;-67
2022/11/11 03:35:23;;;;;;;10.73;6.45;;;13.80;98.60;;;;;;5050605;28;20504;-68
2022/11/11 03:38:46;;;;;;;11.50;6.95;;;13.90;98.70;;;;;;5050752;28;20104;-68
2022/11/11 03:42:09;;;;;;;10.60;6.57;;;13.90;98.70;;;;;;5050326;28;20044;-68
2022/11/11 03:45:31;;;;;;;12.52;6.78;;;13.90;98.60;;;;;;5050424;28;20036;-68
2022/11/11 03:48:53;;;;;;;8.95;6.53;;;13.90;98.80;;;;;;5053496;28;20040;-68
2022/11/11 03:52:17;;;;;;;9.40;6.60;;;14.10;99.00;;;;;;5054112;28;20055;-68
2022/11/11 03:55:41;;;;;;;12.25;6.88;;;14.20;98.70;;;;;;5054263;28;20099;-68
2022/11/11 03:59:03;;;;;;;11.88;6.47;;;14.20;98.80;;;;;;5053864;28;20051;-68
2022/11/11 04:17:18;;;;;;;10.23;7.18;;;14.00;98.60;;;;;;5054890;28;20040;-68
2022/11/11 04:35:27;;;;;;;10.18;6.45;;;14.00;99.00;;;;;;5053271;28;20040;-68
2022/11/11 04:42:31;;;;;;;12.23;7.90;;;14.00;99.00;;;;;;5053115;28;20040;-68
2022/11/11 04:45:57;;;;;;;13.85;6.97;;;14.00;99.10;;;;;;5053682;28;20048;-67
2022/11/11 04:49:20;;;;;;;10.15;5.97;;;14.00;99.40;;;;;;5053249;28;20063;-69
2022/11/11 04:52:43;;;;;;;10.38;6.38;;;14.00;98.90;;;;;;5053086;28;20048;-67
2022/11/11 04:59:48;;;;;;;10.57;6.47;;;14.00;99.40;;;;;;5052757;28;20055;-67
2022/11/11 05:03:15;;;;;;;11.63;7.60;;;14.00;99.50;;;;;;5052836;28;20052;-67
2022/11/11 05:10:18;;;;;;;12.60;7.37;;;14.10;99.10;;;;;;5052434;28;20040;-67
2022/11/11 05:21:19;;;;;;;12.80;7.40;;;14.00;99.10;;;;;;5052288;28;20040;-68
2022/11/11 05:28:25;;;;;;;23.30;10.93;;;14.20;99.90;;;;;;5052472;28;20052;-69
2022/11/11 05:31:48;;;;;;;14.70;10.38;;;14.40;99.90;;;;;;5052025;28;20044;-69
2022/11/11 05:35:12;;;;;;;13.55;9.63;;;14.60;99.90;;;;;;5051933;28;20040;-67
2022/11/11 05:38:34;;;;;;;15.15;8.93;;;14.70;99.90;;;;;;5052120;28;20052;-68
2022/11/11 05:41:57;;;;;;;19.70;10.18;;;14.60;99.00;;;;;;5052142;28;20044;-69
2022/11/11 05:45:20;;;;;;;26.58;11.57;;;14.50;99.10;;;;;;5052164;28;20052;-69
2022/11/11 05:49:14;;;;;;;22.65;12.10;;;14.50;99.40;;;;;;5051938;28;20507;-68
2022/11/11 05:52:24;;;;;;;19.48;11.80;;;14.40;99.50;;;;;;5051532;28;20048;-68
2022/11/11 05:55:49;;;;;;;15.15;9.93;;;14.40;99.90;;;;;;5051746;28;20072;-68
2022/11/11 05:59:13;;;;;;;15.43;10.27;;;14.40;99.80;;;;;;5051763;28;20057;-68
2022/11/11 06:02:36;;;;;;;14.77;10.30;;;14.40;99.30;;;;;;5051168;28;20040;-68
2022/11/11 06:05:59;;;;;;;22.23;10.65;;;14.20;99.30;;;;;;5051534;28;20047;-67
2022/11/11 06:09:21;;;;;;;17.67;11.15;;;14.20;99.90;;;;;;5051765;28;20048;-68
2022/11/11 06:16:25;;;;;;;24.98;11.75;;;14.30;99.90;;;;;;5051635;28;20044;-67
2022/11/11 06:19:48;;;;;;;18.25;10.30;;;14.50;99.90;;;;;;5051521;28;20550;-68
2022/11/11 06:23:11;;;;;;;19.23;10.77;;;14.40;99.40;;;;;;5051210;28;20035;-68
2022/11/11 06:26:34;;;;;;;18.30;11.73;;;14.30;99.70;;;;;;5050744;28;20048;-68
2022/11/11 06:29:56;;;;;;;20.77;12.95;;;14.30;99.90;;;;;;5050963;28;20064;-68
2022/11/11 06:33:20;;;;;;;21.70;11.40;;;14.40;99.90;;;;;;5050588;28;20048;-69
2022/11/11 06:36:42;;;;;;;22.50;11.07;;;14.50;99.90;;;;;;5050671;28;20083;-68
2022/11/11 06:40:05;;;;;;;22.42;12.15;;;14.60;99.90;;;;;;5050770;28;20044;-68
2022/11/11 06:43:28;;;;;;;18.23;10.50;;;14.60;99.60;;;;;;5050720;28;20048;-69
2022/11/11 06:46:51;;;;;;;20.98;10.98;;;14.80;99.90;;;;;;5050661;28;20375;-68
2022/11/11 06:50:14;;;;;;;12.98;9.55;;;15.00;99.90;;;;;;5049889;28;20084;-67
2022/11/11 06:53:37;;;;;;;16.55;9.10;;;15.40;99.60;;;;;;5050766;28;20432;-68
2022/11/11 06:56:59;;;;;;;18.83;9.32;;;15.80;98.50;;;;;;5049978;28;20037;-68
2022/11/11 07:00:22;;;;;;;13.05;8.75;;;16.20;98.10;;;;;;5050775;28;20060;-69
2022/11/11 07:03:45;;;;;;;13.15;7.82;;;16.60;97.50;;;;;;5050498;28;20063;-68
2022/11/11 07:07:07;;;;;;;248.35;24.55;;;16.90;97.50;;;;;;5049956;28;20039;-67
2022/11/11 07:10:31;;;;;;;15.63;8.25;;;17.30;96.30;;;;;;5049869;28;20048;-69
2022/11/11 07:13:53;;;;;;;15.30;8.45;;;17.70;95.30;;;;;;5050448;28;20059;-68
2022/11/11 07:17:16;;;;;;;13.15;7.40;;;18.00;94.90;;;;;;5050367;28;20072;-72
2022/11/11 07:20:39;;;;;;;14.48;7.57;;;18.20;94.70;;;;;;5050658;28;20048;-67
2022/11/11 07:24:02;;;;;;;11.85;7.22;;;18.40;94.30;;;;;;5054193;28;20048;-67
2022/11/11 07:27:24;;;;;;;21.92;8.32;;;18.50;94.10;;;;;;5054491;28;20056;-68
2022/11/11 07:30:47;;;;;;;15.75;7.90;;;18.70;94.00;;;;;;5054606;28;20047;-68
2022/11/11 07:34:10;;;;;;;9.65;6.80;;;18.90;94.00;;;;;;5054110;28;20647;-71
2022/11/11 07:37:32;;;;;;;13.65;7.40;;;19.10;93.70;;;;;;5054706;28;20056;-70
2022/11/11 07:40:55;;;;;;;10.20;6.15;;;19.30;93.50;;;;;;5054138;28;20048;-69
2022/11/11 07:44:17;;;;;;;12.90;6.00;;;19.50;92.20;;;;;;5054254;28;20504;-68
2022/11/11 07:47:44;;;;;;;12.10;5.97;;;19.60;91.80;;;;;;5053992;28;20036;-70
2022/11/11 07:51:06;;;;;;;10.35;6.45;;;19.60;91.70;;;;;;5053546;28;20068;-69
2022/11/11 07:54:30;;;;;;;11.50;5.80;;;19.60;91.30;;;;;;5053802;28;20060;-66
2022/11/11 07:57:52;;;;;;;18.17;6.68;;;19.80;91.30;;;;;;5053828;28;20055;-69
2022/11/11 08:01:15;;;;;;;13.55;5.85;;;19.80;91.10;;;;;;5053854;28;20061;-70
2022/11/11 08:04:38;;;;;;;11.27;6.90;;;19.90;90.60;;;;;;5053818;28;20059;-67
2022/11/11 08:08:05;;;;;;;11.30;6.20;;;19.80;90.50;;;;;;5053747;28;20048;-70
2022/11/11 08:15:09;;;;;;;12.85;5.78;;;20.00;90.50;;;;;;5053671;28;20052;-71
2022/11/11 08:18:33;;;;;;;9.90;5.57;;;20.10;90.30;;;;;;5053521;28;20048;-67
2022/11/11 08:21:55;;;;;;;10.55;6.25;;;20.10;90.20;;;;;;5053614;28;20048;-67
2022/11/11 08:25:18;;;;;;;10.55;6.13;;;20.20;90.30;;;;;;5052418;28;20509;-70
2022/11/11 08:28:40;;;;;;;12.15;6.20;;;20.20;90.00;;;;;;5053374;28;20063;-68
2022/11/11 08:32:03;;;;;;;10.20;6.07;;;20.10;89.40;;;;;;5053189;28;20060;-69
2022/11/11 08:35:26;;;;;;;12.98;5.63;;;20.10;90.00;;;;;;5053110;28;20056;-68
2022/11/11 08:38:49;;;;;;;10.60;5.72;;;20.30;89.80;;;;;;5053176;28;20036;-68
2022/11/11 08:42:12;;;;;;;10.90;5.30;;;20.40;89.00;;;;;;5052869;28;20048;-69
2022/11/11 08:45:35;;;;;;;14.23;6.45;;;20.40;88.80;;;;;;5053226;28;20044;-70
2022/11/11 08:48:57;;;;;;;15.43;6.20;;;20.50;88.80;;;;;;5053154;28;20052;-69
2022/11/11 08:52:20;;;;;;;7.93;5.82;;;20.50;89.10;;;;;;5052909;28;20072;-69
2022/11/11 08:55:42;;;;;;;8.45;5.55;;;20.70;89.10;;;;;;5052500;28;20052;-69
2022/11/11 08:59:05;;;;;;;8.02;5.47;;;20.70;88.80;;;;;;5052941;28;20052;-67
2022/11/11 09:02:28;;;;;;;13.35;5.50;;;20.60;87.90;;;;;;5043455;28;20508;-69
2022/11/11 09:05:50;;;;;;;13.40;5.93;;;20.70;87.20;;;;;;5052528;28;20055;-68
2022/11/11 09:09:13;;;;;;;9.57;5.53;;;20.80;88.10;;;;;;5052495;28;20063;-69
2022/11/11 09:12:35;;;;;;;12.80;5.93;;;20.90;87.60;;;;;;5052446;28;20052;-69
2022/11/11 09:16:17;;;;;;;13.27;5.53;;;21.00;86.80;;;;;;5052695;28;20063;-69
2022/11/11 09:19:40;;;;;;;9.52;5.13;;;21.10;87.10;;;;;;5052447;28;20040;-71
2022/11/11 09:23:02;;;;;;;10.00;5.20;;;21.40;85.20;;;;;;5052509;28;20051;-70
2022/11/11 09:26:25;;;;;;;9.63;4.63;;;21.60;85.20;;;;;;5052056;28;20060;-69
2022/11/11 09:29:47;;;;;;;9.20;4.78;;;21.60;84.70;;;;;;5052021;28;20048;-70
2022/11/11 09:33:11;;;;;;;11.82;4.13;;;21.60;83.90;;;;;;5052240;28;20060;-69
2022/11/11 09:36:34;;;;;;;12.40;4.25;;;21.60;83.70;;;;;;5052100;28;20044;-69
2022/11/11 09:39:57;;;;;;;9.00;3.80;;;21.70;83.20;;;;;;5051761;28;20397;-69
2022/11/11 09:43:28;;;;;;;9.25;4.28;;;21.60;82.60;;;;;;5051850;28;20369;-70
2022/11/11 09:47:05;;;;;;;8.50;4.55;;;21.70;82.50;;;;;;5049970;28;20048;-70
2022/11/11 09:50:30;;;;;;;10.63;4.57;;;21.70;82.30;;;;;;5049494;28;20056;-69
2022/11/11 09:53:59;;;;;;;9.52;4.70;;;21.80;83.10;;;;;;5050761;28;20064;-70
2022/11/11 09:57:29;;;;;;;18.27;5.40;;;21.90;81.90;;;;;;5051266;28;20036;-71
2022/11/11 10:01:01;;;;;;;8.40;4.30;;;21.80;82.20;;;;;;5051160;28;20048;-71
2022/11/11 10:04:45;;;;;;;10.27;4.28;;;21.80;82.90;;;;;;5050592;28;20412;-71
2022/11/11 10:08:47;;;;;;;10.18;4.38;;;21.90;82.80;;;;;;5051185;28;20059;-71
2022/11/11 10:12:12;;;;;;;8.07;4.45;;;22.00;82.40;;;;;;5051334;28;20051;-69
2022/11/11 10:15:44;;;;;;;7.13;4.55;;;22.10;82.10;;;;;;5050843;28;20515;-73
2022/11/11 10:19:25;;;;;;;6.72;4.53;;;22.20;82.00;;;;;;5050460;28;20052;-70
2022/11/11 10:23:13;;;;;;;7.10;4.32;;;22.30;81.80;;;;;;5050218;28;20040;-69
2022/11/11 10:26:39;;;;;;;7.47;4.65;;;22.10;81.50;;;;;;5051230;28;20051;-69
2022/11/11 10:30:20;;;;;;;7.15;3.90;;;22.10;82.20;;;;;;5048971;28;20056;-70
2022/11/11 10:34:02;;;;;;;5.40;4.40;;;22.10;81.10;;;;;;5051013;28;20056;-68
2022/11/11 10:37:37;;;;;;;7.93;4.45;;;22.10;81.00;;;;;;5051193;28;20056;-69
2022/11/11 10:41:14;;;;;;;6.22;4.72;;;22.00;82.70;;;;;;5050544;28;20048;-70
2022/11/11 10:44:37;;;;;;;7.85;4.30;;;22.00;83.00;;;;;;5051049;28;20036;-69
2022/11/11 10:48:08;;;;;;;12.77;4.75;;;22.00;83.00;;;;;;5051290;28;20052;-70
2022/11/11 10:51:41;;;;;;;6.72;4.57;;;22.10;82.90;;;;;;5049807;28;20060;-70
2022/11/11 10:55:24;;;;;;;10.02;4.72;;;22.00;81.90;;;;;;5050149;28;20547;-67
2022/11/11 10:59:00;;;;;;;8.27;3.90;;;22.10;82.90;;;;;;5057656;28;20507;-70
2022/11/11 11:02:27;;;;;;;13.30;4.63;;;22.10;81.70;;;;;;5057616;28;20040;-68
2022/11/11 11:06:05;;;;;;;6.60;4.15;;;22.00;82.60;;;;;;5057253;28;20496;-71
2022/11/11 11:09:36;;;;;;;6.20;4.47;;;22.00;82.70;;;;;;5057496;28;20039;-67
2022/11/11 11:13:11;;;;;;;9.15;4.63;;;21.80;82.50;;;;;;5057611;28;20048;-69
2022/11/11 11:16:38;;;;;;;9.63;4.28;;;21.80;83.30;;;;;;5057268;28;20396;-67
2022/11/11 11:20:11;;;;;;;10.65;5.13;;;21.80;84.10;;;;;;5057404;28;20039;-68
2022/11/11 11:23:45;;;;;;;7.47;4.47;;;21.70;83.90;;;;;;5057572;28;20063;-70
2022/11/11 11:27:08;;;;;;;12.93;4.88;;;21.70;83.90;;;;;;5057368;28;20404;-69
2022/11/11 11:30:31;;;;;;;9.73;4.70;;;21.70;84.20;;;;;;5057027;28;20044;-68
2022/11/11 11:33:55;;;;;;;11.32;5.07;;;21.70;84.10;;;;;;5057192;28;20064;-67
2022/11/11 11:37:23;;;;;;;9.35;5.57;;;21.70;84.70;;;;;;5057038;28;20048;-68
2022/11/11 11:40:55;;;;;;;7.40;4.93;;;21.60;85.30;;;;;;5057238;28;20523;-68
2022/11/11 11:44:24;;;;;;;;;;;21.60;84.50;;;;;;5057765;28;20048;-70
2022/11/11 11:48:26;;;;;;;15.15;4.82;;;21.50;85.30;;;;;;5057072;28;19915;-69
2022/11/11 11:52:17;;;;;;;11.05;5.85;;;21.50;86.90;;;;;;5056142;28;20090;-68
2022/11/11 11:55:45;;;;;;;12.45;5.63;;;21.40;86.40;;;;;;5056768;28;20048;-67
2022/11/11 11:59:20;;;;;;;8.13;4.70;;;21.30;87.00;;;;;;5056448;28;20044;-70
2022/11/11 12:03:10;;;;;;;10.27;4.80;;;21.20;87.20;;;;;;5056683;28;20048;-67
2022/11/11 12:06:45;;;;;;;7.10;4.63;;;21.20;86.80;;;;;;5057077;28;20048;-69
2022/11/11 12:10:33;;;;;;;11.55;4.70;;;21.20;86.80;;;;;;5053489;28;20040;-68
2022/11/11 12:14:26;;;;;;;10.85;4.45;;;21.30;86.10;;;;;;5053129;28;20416;-70
2022/11/11 12:17:55;;;;;;;6.72;3.50;;;21.20;86.30;;;;;;5053395;28;20040;-68
2022/11/11 12:21:24;;;;;;;9.05;4.47;;;21.20;85.90;;;;;;5053297;28;20389;-69
2022/11/11 12:24:58;;;;;;;8.27;4.15;;;21.20;86.20;;;;;;5053103;28;20044;-68
2022/11/11 12:28:46;;;;;;;8.93;4.10;;;21.20;86.20;;;;;;5053567;28;20044;-69
2022/11/11 12:32:11;;;;;;;9.00;4.10;;;21.20;86.70;;;;;;5053285;28;20518;-68
2022/11/11 12:35:40;;;;;;;10.35;4.22;;;21.20;85.90;;;;;;5053482;28;20056;-69
2022/11/11 12:39:16;;;;;;;7.07;3.67;;;21.20;86.20;;;;;;5053446;28;20044;-69
2022/11/11 12:42:53;;;;;;;10.35;4.65;;;21.20;86.50;;;;;;5053401;28;20048;-69
2022/11/11 12:46:37;;;;;;;7.03;4.03;;;21.10;86.80;;;;;;5053107;28;20059;-67
2022/11/11 12:50:25;;;;;;;10.23;4.47;;;21.10;87.80;;;;;;5052730;28;20040;-68
2022/11/11 12:54:01;;;;;;;10.57;4.78;;;21.10;87.80;;;;;;5052584;28;20048;-70
2022/11/11 12:57:37;;;;;;;9.13;4.68;;;21.00;88.20;;;;;;5052728;28;20055;-69
2022/11/11 13:01:15;;;;;;;7.47;4.10;;;21.00;88.30;;;;;;5052958;28;20108;-68
2022/11/11 13:05:03;;;;;;;7.40;3.13;;;21.00;88.30;;;;;;5052789;28;20044;-70
2022/11/11 13:08:28;;;;;;;8.63;3.10;;;21.00;86.60;;;;;;5051936;28;20652;-69
2022/11/11 13:11:54;;;;;;;5.75;2.42;;;21.00;87.00;;;;;;5052449;28;20040;-68
2022/11/11 13:15:24;;;;;;;6.65;3.25;;;20.80;85.40;;;;;;5052910;28;20056;-71
2022/11/11 13:18:55;;;;;;;5.70;2.97;;;20.80;84.50;;;;;;5052804;28;20047;-68
2022/11/11 13:22:23;;;;;;;6.63;2.88;;;20.80;84.30;;;;;;5052321;28;20048;-67
2022/11/11 13:25:52;;;;;;;6.20;2.75;;;20.60;85.50;;;;;;5052285;28;20488;-71
2022/11/11 13:29:35;;;;;;;5.55;2.25;;;20.60;85.00;;;;;;5052641;28;20051;-69
2022/11/11 13:33:07;;;;;;;4.32;2.65;;;20.60;84.90;;;;;;5052034;28;20048;-69
2022/11/11 13:36:39;;;;;;;4.63;2.47;;;20.60;85.30;;;;;;5052079;28;20052;-72
2022/11/11 13:40:07;;;;;;;5.65;2.80;;;20.60;85.70;;;;;;5051999;28;20500;-70
2022/11/11 13:43:35;;;;;;;3.40;2.40;;;20.60;86.30;;;;;;5051258;28;20044;-68
2022/11/11 13:47:12;;;;;;;4.85;2.55;;;20.60;86.60;;;;;;5051813;28;20048;-70
2022/11/11 13:50:39;;;;;;;4.45;2.90;;;20.60;85.70;;;;;;5051378;28;20056;-66
2022/11/11 13:54:24;;;;;;;8.40;2.70;;;20.50;85.90;;;;;;5051997;28;20056;-68
2022/11/11 13:57:50;;;;;;;5.00;2.30;;;20.50;86.00;;;;;;5051234;28;20502;-69
2022/11/11 14:01:15;;;;;;;7.90;2.38;;;20.50;85.70;;;;;;5051431;28;20432;-71
2022/11/11 14:05:02;;;;;;;3.13;2.17;;;20.40;85.00;;;;;;5051822;28;20044;-72
2022/11/11 14:08:44;;;;;;;3.58;2.28;;;20.40;85.40;;;;;;5051867;28;20048;-68
2022/11/11 14:12:34;;;;;;;7.18;2.83;;;20.30;85.80;;;;;;5051408;28;20040;-68
2022/11/11 14:15:56;;;;;;;12.77;2.55;;;20.40;86.50;;;;;;5051691;28;20056;-69
2022/11/11 14:19:19;;;;;;;8.70;3.35;;;20.30;86.30;;;;;;5051259;28;20103;-70
2022/11/11 14:22:42;;;;;;;7.88;2.53;;;20.30;86.70;;;;;;5051365;28;20044;-69
2022/11/11 14:26:04;;;;;;;5.90;2.65;;;20.30;86.60;;;;;;5051047;28;20044;-70
2022/11/11 14:29:34;;;;;;;8.02;2.78;;;20.20;86.60;;;;;;5051882;28;20500;-68
2022/11/11 14:33:20;;;;;;;3.72;2.50;;;20.20;86.80;;;;;;5050776;28;20044;-68
2022/11/11 14:36:53;;;;;;;3.85;2.42;;;20.20;87.10;;;;;;5051377;28;20048;-69
2022/11/11 14:40:31;;;;;;;8.13;3.25;;;20.20;87.40;;;;;;5050926;28;20040;-68
2022/11/11 14:43:54;;;;;;;5.63;2.80;;;20.20;87.60;;;;;;5050988;28;20048;-73
2022/11/11 14:47:29;;;;;;;6.30;2.78;;;20.20;87.30;;;;;;5049984;28;20044;-69
2022/11/11 14:50:52;;;;;;;4.55;2.38;;;20.10;87.30;;;;;;5050517;28;20056;-69
2022/11/11 14:54:30;;;;;;;4.63;2.55;;;20.10;87.40;;;;;;5050732;28;20075;-68
2022/11/11 14:58:16;;;;;;;6.07;2.38;;;20.00;87.70;;;;;;5050468;28;20044;-67
2022/11/11 15:01:39;;;;;;;5.93;2.55;;;20.00;87.70;;;;;;5050634;28;20036;-68
2022/11/11 15:05:04;;;;;;;10.30;3.30;;;20.00;88.20;;;;;;5049971;28;20052;-70
2022/11/11 15:08:38;;;;;;;5.65;2.58;;;19.90;88.00;;;;;;5049180;28;20047;-73
2022/11/11 15:12:26;;;;;;;7.88;2.83;;;19.90;88.20;;;;;;5050576;28;20048;-69
2022/11/11 15:15:57;;;;;;;5.38;2.78;;;19.90;88.40;;;;;;5050500;28;20132;-69
2022/11/11 15:19:36;;;;;;;5.70;2.50;;;19.80;88.70;;;;;;5050687;28;20040;-68
2022/11/11 15:23:26;;;;;;;6.55;2.60;;;19.70;88.30;;;;;;5050903;28;20048;-68
2022/11/11 15:26:48;;;;;;;5.07;2.53;;;19.70;88.80;;;;;;5050675;28;20040;-68
2022/11/11 15:30:20;;;;;;;6.18;2.80;;;19.70;88.90;;;;;;5049899;28;20043;-69
2022/11/11 15:34:04;;;;;;;;;;;19.60;89.10;;;;;;5050743;28;20060;-68
2022/11/11 15:37:28;;;;;;;7.22;3.20;;;19.60;89.10;;;;;;5050732;28;19916;-69
2022/11/11 15:40:57;;;;;;;6.43;2.80;;;19.50;89.50;;;;;;5050557;28;20048;-68
2022/11/11 15:44:29;;;;;;;8.40;4.18;;;19.40;89.40;;;;;;5052817;28;20036;-68
2022/11/11 15:47:53;;;;;;;6.75;2.85;;;19.40;89.90;;;;;;5054574;28;20385;-69
2022/11/11 15:51:16;;;;;;;8.60;3.53;;;19.40;90.10;;;;;;5053821;28;20064;-69
2022/11/11 15:54:39;;;;;;;7.05;3.42;;;19.40;90.20;;;;;;5054230;28;20056;-69
2022/11/11 15:58:12;;;;;;;9.38;2.83;;;19.30;90.30;;;;;;5054029;28;20032;-68
2022/11/11 16:01:35;;;;;;;8.38;3.20;;;19.30;90.20;;;;;;5053978;28;20396;-69
2022/11/11 16:05:02;;;;;;;5.93;2.90;;;19.30;90.30;;;;;;5053782;28;20431;-68
2022/11/11 16:08:25;;;;;;;11.05;3.00;;;19.20;90.40;;;;;;5053786;28;20052;-68
2022/11/11 16:11:51;;;;;;;4.13;2.80;;;19.20;90.30;;;;;;5054046;28;20048;-68
2022/11/11 16:15:30;;;;;;;13.60;7.45;;;19.10;90.20;;;;;;5053680;28;20056;-69
2022/11/11 16:19:06;;;;;;;13.32;4.43;;;19.10;90.00;;;;;;5053536;28;20074;-68
2022/11/11 16:22:34;;;;;;;5.47;3.35;;;19.10;89.60;;;;;;5053790;28;20056;-68
2022/11/11 16:25:58;;;;;;;9.02;3.45;;;19.00;89.80;;;;;;5053156;28;20047;-68
2022/11/11 16:29:23;;;;;;;8.13;3.47;;;19.00;89.90;;;;;;5053286;28;20048;-67
2022/11/11 16:32:45;;;;;;;7.03;3.45;;;18.90;89.90;;;;;;5053270;28;20511;-68
2022/11/11 16:36:09;;;;;;;9.40;3.90;;;18.90;89.60;;;;;;5052382;28;20055;-68
2022/11/11 16:39:33;;;;;;;6.93;3.20;;;18.90;89.60;;;;;;5053032;28;20040;-69
2022/11/11 16:43:16;;;;;;;10.45;5.05;;;18.80;89.70;;;;;;5053227;28;20044;-68
2022/11/11 16:46:40;;;;;;;8.27;3.38;;;18.80;89.40;;;;;;5053109;28;20051;-68
2022/11/11 16:50:25;;;;;;;9.77;4.43;;;18.70;88.70;;;;;;5052548;28;20048;-68
2022/11/11 16:54:05;;;;;;;5.57;2.95;;;18.60;88.40;;;;;;5052764;28;20055;-69
2022/11/11 16:57:32;;;;;;;13.23;9.88;;;18.70;88.10;;;;;;5053190;28;20452;-67
2022/11/11 17:01:00;;;;;;;5.10;2.83;;;18.70;88.20;;;;;;5052439;28;20040;-66
2022/11/11 17:04:24;;;;;;;9.30;6.20;;;18.60;87.50;;;;;;5052509;28;20040;-68
2022/11/11 17:07:46;;;;;;;14.43;7.80;;;18.60;87.40;;;;;;5051733;28;20059;-69
2022/11/11 17:11:37;;;;;;;14.85;8.15;;;18.60;87.40;;;;;;5052112;28;20035;-69
2022/11/11 17:15:00;;;;;;;17.98;8.90;;;18.50;87.40;;;;;;5052351;28;20504;-69
2022/11/11 17:18:25;;;;;;;4.80;3.67;;;18.60;87.50;;;;;;5052104;28;20044;-69
2022/11/11 17:21:48;;;;;;;10.93;7.88;;;18.50;87.50;;;;;;5052490;28;20067;-69
2022/11/11 17:25:10;;;;;;;30.80;18.98;;;18.50;87.60;;;;;;5051288;28;20044;-69
2022/11/11 17:28:34;;;;;;;28.05;17.80;;;18.50;87.70;;;;;;5051915;28;20068;-68
2022/11/11 17:31:57;;;;;;;26.88;17.88;;;18.50;87.20;;;;;;5052189;28;20040;-69
2022/11/11 17:35:20;;;;;;;25.70;15.93;;;18.50;86.60;;;;;;5051702;28;20106;-68
2022/11/11 17:38:42;;;;;;;31.42;18.52;;;18.40;87.30;;;;;;5052054;28;20519;-69
2022/11/11 17:42:05;;;;;;;12.35;6.80;;;18.40;87.40;;;;;;5052152;28;20055;-67
2022/11/11 17:45:27;;;;;;;11.65;6.03;;;18.40;86.50;;;;;;5051979;28;20396;-69
2022/11/11 17:48:54;;;;;;;12.48;7.22;;;18.40;86.40;;;;;;5051958;28;20401;-69
2022/11/11 17:52:18;;;;;;;15.90;5.68;;;18.30;86.60;;;;;;5050811;28;20047;-69
2022/11/11 17:55:40;;;;;;;9.68;5.10;;;18.30;87.00;;;;;;5051283;28;20405;-67
2022/11/11 17:59:06;;;;;;;20.77;8.93;;;18.30;88.10;;;;;;5051502;28;20460;-67
2022/11/11 18:02:29;;;;;;;15.40;5.55;;;18.30;88.60;;;;;;5051281;28;20060;-69
2022/11/11 18:05:54;;;;;;;11.02;5.60;;;18.20;89.70;;;;;;5051241;28;20040;-70
2022/11/11 18:09:17;;;;;;;19.15;6.97;;;18.10;90.20;;;;;;5051492;28;20397;-69
2022/11/11 18:12:40;;;;;;;13.60;6.57;;;18.00;89.90;;;;;;5051440;28;20040;-69
2022/11/11 18:16:04;;;;;;;8.32;4.20;;;18.00;89.90;;;;;;5051618;28;20116;-71
2022/11/11 18:19:26;;;;;;;9.15;3.85;;;17.90;89.20;;;;;;5051271;28;20044;-71
2022/11/11 18:22:54;;;;;;;7.35;3.35;;;18.00;88.40;;;;;;5051274;28;20048;-70
2022/11/11 18:26:16;;;;;;;8.25;3.08;;;17.90;88.20;;;;;;5050892;28;20400;-69
2022/11/11 18:29:38;;;;;;;7.65;3.60;;;17.90;88.00;;;;;;5051026;28;20048;-69
2022/11/11 18:33:01;;;;;;;11.95;4.97;;;17.80;87.80;;;;;;5051394;28;20044;-68
2022/11/11 18:36:24;;;;;;;6.32;3.95;;;17.70;88.30;;;;;;5051204;28;20393;-70
2022/11/11 18:39:46;;;;;;;7.93;4.10;;;17.80;88.40;;;;;;5050597;28;20044;-71
2022/11/11 18:43:09;;;;;;;9.50;4.35;;;17.70;88.70;;;;;;5050960;28;20111;-70
2022/11/11 18:46:34;;;;;;;45.17;21.23;;;17.70;88.60;;;;;;5051091;28;20388;-70
2022/11/11 18:49:56;;;;;;;33.22;22.75;;;17.60;89.10;;;;;;5050686;28;20044;-69
2022/11/11 18:53:19;;;;;;;9.93;5.78;;;17.70;89.30;;;;;;5051288;28;20048;-71
2022/11/11 18:56:41;;;;;;;5.65;2.92;;;17.70;89.00;;;;;;5050892;28;20074;-70
2022/11/11 19:00:05;;;;;;;8.38;3.47;;;17.70;89.20;;;;;;5050998;28;20048;-70
2022/11/11 19:03:27;;;;;;;70.55;33.58;;;17.70;89.40;;;;;;5050104;28;20160;-70
2022/11/11 19:06:50;;;;;;;37.70;17.90;;;17.60;89.30;;;;;;5050674;28;20554;-70
2022/11/11 19:10:13;;;;;;;12.38;7.07;;;17.60;89.70;;;;;;5049895;28;20389;-70
2022/11/11 19:13:36;;;;;;;13.65;7.82;;;17.70;89.70;;;;;;5050469;28;20071;-70
2022/11/11 19:16:59;;;;;;;8.98;3.33;;;17.60;89.70;;;;;;5050810;28;20056;-69
2022/11/11 19:20:21;;;;;;;8.13;3.80;;;17.60;89.70;;;;;;5054853;28;20048;-70
2022/11/11 19:23:46;;;;;;;8.10;4.80;;;17.50;89.80;;;;;;5054542;28;20401;-70
2022/11/11 19:27:09;;;;;;;6.53;3.60;;;17.40;90.00;;;;;;5054422;28;20068;-69
2022/11/11 19:30:32;;;;;;;8.93;3.72;;;17.30;90.20;;;;;;5054386;28;20040;-70